Terminal Aerodrome Forecast
Issued by NWS Greer, SC

Current Version | Previous Version | Text Only | Print | Product List | Glossary On
Versions: 1 2 3 4 5 6 7 8 9 10 11 12 13 14 15 16 17 18 19
000
FTUS42 KGSP 271720
TAFGSP
TAF
KGSP 271720Z 2718/2818 17008KT P6SM VCSH OVC020
      TEMPO 2721/2801 4SM -TSRA OVC010CB
     FM280100 21005KT P6SM BKN045
     FM281000 VRB02KT 5SM BR SCT003
     FM281300 VRB02KT P6SM SCT070=

USA.gov is the U.S. government's official web portal to all federal, state and local government web resources and services.